sensor_id;sensor_type;location;lat;lon;timestamp;temperature;humidity
51557;DHT22;38766;53.194;5.532;2024-01-25T00:02:16;7.10;99.90
51557;DHT22;38766;53.194;5.532;2024-01-25T00:04:41;7.10;99.90
51557;DHT22;38766;53.194;5.532;2024-01-25T00:07:10;7.10;99.90
51557;DHT22;38766;53.194;5.532;2024-01-25T00:09:37;7.10;99.90
51557;DHT22;38766;53.194;5.532;2024-01-25T00:12:03;7.00;99.90
51557;DHT22;38766;53.194;5.532;2024-01-25T00:14:29;7.10;99.90
51557;DHT22;38766;53.194;5.532;2024-01-25T00:16:55;7.00;99.90
51557;DHT22;38766;53.194;5.532;2024-01-25T00:19:20;7.00;99.90
51557;DHT22;38766;53.194;5.532;2024-01-25T00:21:46;7.00;99.90
51557;DHT22;38766;53.194;5.532;2024-01-25T00:24:12;7.00;99.90
51557;DHT22;38766;53.194;5.532;2024-01-25T00:26:38;7.00;99.90
51557;DHT22;38766;53.194;5.532;2024-01-25T00:29:04;7.00;99.90
51557;DHT22;38766;53.194;5.532;2024-01-25T00:31:30;7.00;99.90
51557;DHT22;38766;53.194;5.532;2024-01-25T00:33:57;6.90;99.90
51557;DHT22;38766;53.194;5.532;2024-01-25T00:36:23;6.90;99.90
51557;DHT22;38766;53.194;5.532;2024-01-25T00:38:49;6.90;99.90
51557;DHT22;38766;53.194;5.532;2024-01-25T00:41:18;6.90;99.90
51557;DHT22;38766;53.194;5.532;2024-01-25T00:43:45;6.90;99.90
51557;DHT22;38766;53.194;5.532;2024-01-25T00:46:11;6.90;99.90
51557;DHT22;38766;53.194;5.532;2024-01-25T00:48:37;6.90;99.90
51557;DHT22;38766;53.194;5.532;2024-01-25T00:51:07;6.90;99.90
51557;DHT22;38766;53.194;5.532;2024-01-25T00:53:33;6.90;99.90
51557;DHT22;38766;53.194;5.532;2024-01-25T00:55:59;6.90;99.90
51557;DHT22;38766;53.194;5.532;2024-01-25T00:58:25;6.90;99.90
51557;DHT22;38766;53.194;5.532;2024-01-25T01:00:51;6.80;99.90
51557;DHT22;38766;53.194;5.532;2024-01-25T01:03:18;6.80;99.90
51557;DHT22;38766;53.194;5.532;2024-01-25T01:05:45;6.80;99.90
51557;DHT22;38766;53.194;5.532;2024-01-25T01:08:11;6.80;99.90
51557;DHT22;38766;53.194;5.532;2024-01-25T01:10:37;6.80;99.90
51557;DHT22;38766;53.194;5.532;2024-01-25T01:13:02;6.80;99.90
51557;DHT22;38766;53.194;5.532;2024-01-25T01:15:28;6.80;99.90
51557;DHT22;38766;53.194;5.532;2024-01-25T01:17:54;6.70;99.90
51557;DHT22;38766;53.194;5.532;2024-01-25T01:20:20;6.80;99.90
51557;DHT22;38766;53.194;5.532;2024-01-25T01:22:45;6.80;99.90
51557;DHT22;38766;53.194;5.532;2024-01-25T01:25:11;6.80;99.90
51557;DHT22;38766;53.194;5.532;2024-01-25T01:27:37;6.80;99.90
51557;DHT22;38766;53.194;5.532;2024-01-25T01:30:03;6.80;99.90
51557;DHT22;38766;53.194;5.532;2024-01-25T01:32:29;6.70;99.90
51557;DHT22;38766;53.194;5.532;2024-01-25T01:34:54;6.70;99.90
51557;DHT22;38766;53.194;5.532;2024-01-25T01:37:20;6.70;99.90
51557;DHT22;38766;53.194;5.532;2024-01-25T01:39:46;6.80;99.90
51557;DHT22;38766;53.194;5.532;2024-01-25T01:42:11;6.70;99.90
51557;DHT22;38766;53.194;5.532;2024-01-25T01:44:37;6.80;99.90
51557;DHT22;38766;53.194;5.532;2024-01-25T01:47:04;6.70;99.90
51557;DHT22;38766;53.194;5.532;2024-01-25T01:49:29;6.70;99.90
51557;DHT22;38766;53.194;5.532;2024-01-25T01:51:56;6.70;99.90
51557;DHT22;38766;53.194;5.532;2024-01-25T01:54:22;6.70;99.90
51557;DHT22;38766;53.194;5.532;2024-01-25T01:56:48;6.70;99.90
51557;DHT22;38766;53.194;5.532;2024-01-25T01:59:15;6.70;99.90
51557;DHT22;38766;53.194;5.532;2024-01-25T02:01:41;6.70;99.90
51557;DHT22;38766;53.194;5.532;2024-01-25T02:04:07;6.70;99.90
51557;DHT22;38766;53.194;5.532;2024-01-25T02:06:33;6.70;99.90
51557;DHT22;38766;53.194;5.532;2024-01-25T02:08:59;6.80;99.90
51557;DHT22;38766;53.194;5.532;2024-01-25T02:11:28;6.60;99.90
51557;DHT22;38766;53.194;5.532;2024-01-25T02:13:54;6.60;99.90
51557;DHT22;38766;53.194;5.532;2024-01-25T02:16:19;6.60;99.90
51557;DHT22;38766;53.194;5.532;2024-01-25T02:18:46;6.60;99.90
51557;DHT22;38766;53.194;5.532;2024-01-25T02:21:12;6.60;99.90
51557;DHT22;38766;53.194;5.532;2024-01-25T02:23:38;6.60;99.90
51557;DHT22;38766;53.194;5.532;2024-01-25T02:26:03;6.60;99.90
51557;DHT22;38766;53.194;5.532;2024-01-25T02:28:29;6.60;99.90
51557;DHT22;38766;53.194;5.532;2024-01-25T02:30:55;6.60;99.90
51557;DHT22;38766;53.194;5.532;2024-01-25T02:33:20;6.60;99.90
51557;DHT22;38766;53.194;5.532;2024-01-25T02:35:46;6.50;99.90
51557;DHT22;38766;53.194;5.532;2024-01-25T02:38:11;6.50;99.90
51557;DHT22;38766;53.194;5.532;2024-01-25T02:40:37;6.60;99.90
51557;DHT22;38766;53.194;5.532;2024-01-25T02:43:03;6.50;99.90
51557;DHT22;38766;53.194;5.532;2024-01-25T02:45:28;6.60;99.90
51557;DHT22;38766;53.194;5.532;2024-01-25T02:47:54;6.50;99.90
51557;DHT22;38766;53.194;5.532;2024-01-25T02:50:20;6.50;99.90
51557;DHT22;38766;53.194;5.532;2024-01-25T02:52:45;6.50;99.90
51557;DHT22;38766;53.194;5.532;2024-01-25T02:55:11;6.50;99.90
51557;DHT22;38766;53.194;5.532;2024-01-25T02:57:37;6.50;99.90
51557;DHT22;38766;53.194;5.532;2024-01-25T03:00:02;6.50;99.90
51557;DHT22;38766;53.194;5.532;2024-01-25T03:02:28;6.50;99.90
51557;DHT22;38766;53.194;5.532;2024-01-25T03:04:54;6.50;99.90
51557;DHT22;38766;53.194;5.532;2024-01-25T03:07:19;6.50;99.90
51557;DHT22;38766;53.194;5.532;2024-01-25T03:09:45;6.40;99.90
51557;DHT22;38766;53.194;5.532;2024-01-25T03:12:11;6.40;99.90
51557;DHT22;38766;53.194;5.532;2024-01-25T03:14:37;6.40;99.90
51557;DHT22;38766;53.194;5.532;2024-01-25T03:17:02;6.40;99.90
51557;DHT22;38766;53.194;5.532;2024-01-25T03:19:28;6.40;99.90
51557;DHT22;38766;53.194;5.532;2024-01-25T03:21:54;6.30;99.90
51557;DHT22;38766;53.194;5.532;2024-01-25T03:24:23;6.40;99.90
51557;DHT22;38766;53.194;5.532;2024-01-25T03:26:49;6.40;99.90
51557;DHT22;38766;53.194;5.532;2024-01-25T03:29:15;6.40;99.90
51557;DHT22;38766;53.194;5.532;2024-01-25T03:31:41;6.40;99.90
51557;DHT22;38766;53.194;5.532;2024-01-25T03:34:06;6.40;99.90
51557;DHT22;38766;53.194;5.532;2024-01-25T03:36:32;6.40;99.90
51557;DHT22;38766;53.194;5.532;2024-01-25T03:38:58;6.30;99.90
51557;DHT22;38766;53.194;5.532;2024-01-25T03:41:24;6.40;99.90
51557;DHT22;38766;53.194;5.532;2024-01-25T03:43:50;6.40;99.90
51557;DHT22;38766;53.194;5.532;2024-01-25T03:46:15;6.40;99.90
51557;DHT22;38766;53.194;5.532;2024-01-25T03:48:41;6.30;99.90
51557;DHT22;38766;53.194;5.532;2024-01-25T03:51:07;6.30;99.90
51557;DHT22;38766;53.194;5.532;2024-01-25T03:53:33;6.30;99.90
51557;DHT22;38766;53.194;5.532;2024-01-25T03:56:01;6.30;99.90
51557;DHT22;38766;53.194;5.532;2024-01-25T03:58:28;6.30;99.90
51557;DHT22;38766;53.194;5.532;2024-01-25T04:00:53;6.30;99.90
51557;DHT22;38766;53.194;5.532;2024-01-25T04:03:19;6.30;99.90
51557;DHT22;38766;53.194;5.532;2024-01-25T04:05:45;6.30;99.90
51557;DHT22;38766;53.194;5.532;2024-01-25T04:08:10;6.30;99.90
51557;DHT22;38766;53.194;5.532;2024-01-25T04:10:36;6.30;99.90
51557;DHT22;38766;53.194;5.532;2024-01-25T04:13:02;6.30;99.90
51557;DHT22;38766;53.194;5.532;2024-01-25T04:15:30;6.30;99.90
51557;DHT22;38766;53.194;5.532;2024-01-25T04:17:55;6.20;99.90
51557;DHT22;38766;53.194;5.532;2024-01-25T04:20:26;6.20;99.90
51557;DHT22;38766;53.194;5.532;2024-01-25T04:22:52;6.30;99.90
51557;DHT22;38766;53.194;5.532;2024-01-25T04:25:18;6.20;99.90
51557;DHT22;38766;53.194;5.532;2024-01-25T04:27:44;6.20;99.90
51557;DHT22;38766;53.194;5.532;2024-01-25T04:30:09;6.20;99.90
51557;DHT22;38766;53.194;5.532;2024-01-25T04:32:35;6.20;99.90
51557;DHT22;38766;53.194;5.532;2024-01-25T04:35:01;6.20;99.90
51557;DHT22;38766;53.194;5.532;2024-01-25T04:37:27;6.20;99.90
51557;DHT22;38766;53.194;5.532;2024-01-25T04:39:52;6.20;99.90
51557;DHT22;38766;53.194;5.532;2024-01-25T04:42:18;6.20;99.90
51557;DHT22;38766;53.194;5.532;2024-01-25T04:44:44;6.10;99.90
51557;DHT22;38766;53.194;5.532;2024-01-25T04:47:09;6.20;99.90
51557;DHT22;38766;53.194;5.532;2024-01-25T04:49:35;6.20;99.90
51557;DHT22;38766;53.194;5.532;2024-01-25T04:52:01;6.10;99.90
51557;DHT22;38766;53.194;5.532;2024-01-25T04:54:27;6.10;99.90
51557;DHT22;38766;53.194;5.532;2024-01-25T04:56:52;6.10;99.90
51557;DHT22;38766;53.194;5.532;2024-01-25T04:59:18;6.10;99.90
51557;DHT22;38766;53.194;5.532;2024-01-25T05:01:44;6.10;99.90
51557;DHT22;38766;53.194;5.532;2024-01-25T05:04:09;6.10;99.90
51557;DHT22;38766;53.194;5.532;2024-01-25T05:06:35;6.10;99.90
51557;DHT22;38766;53.194;5.532;2024-01-25T05:09:01;6.10;99.90
51557;DHT22;38766;53.194;5.532;2024-01-25T05:11:27;6.10;99.90
51557;DHT22;38766;53.194;5.532;2024-01-25T05:13:52;6.10;99.90
51557;DHT22;38766;53.194;5.532;2024-01-25T05:16:18;6.10;99.90
51557;DHT22;38766;53.194;5.532;2024-01-25T05:18:43;6.10;99.90
51557;DHT22;38766;53.194;5.532;2024-01-25T05:21:09;6.10;99.90
51557;DHT22;38766;53.194;5.532;2024-01-25T05:23:35;6.10;99.90
51557;DHT22;38766;53.194;5.532;2024-01-25T05:26:01;6.10;99.90
51557;DHT22;38766;53.194;5.532;2024-01-25T05:28:27;6.00;99.90
51557;DHT22;38766;53.194;5.532;2024-01-25T05:30:53;6.00;99.90
51557;DHT22;38766;53.194;5.532;2024-01-25T05:33:18;6.00;99.90
51557;DHT22;38766;53.194;5.532;2024-01-25T05:35:46;6.00;99.90
51557;DHT22;38766;53.194;5.532;2024-01-25T05:38:11;6.00;99.90
51557;DHT22;38766;53.194;5.532;2024-01-25T05:40:37;6.00;99.90
51557;DHT22;38766;53.194;5.532;2024-01-25T05:43:03;6.00;99.90
51557;DHT22;38766;53.194;5.532;2024-01-25T05:45:28;5.90;99.90
51557;DHT22;38766;53.194;5.532;2024-01-25T05:47:54;6.00;99.90
51557;DHT22;38766;53.194;5.532;2024-01-25T05:50:19;5.90;99.90
51557;DHT22;38766;53.194;5.532;2024-01-25T05:52:45;5.90;99.90
51557;DHT22;38766;53.194;5.532;2024-01-25T05:55:11;5.90;99.90
51557;DHT22;38766;53.194;5.532;2024-01-25T05:57:37;5.90;99.90
51557;DHT22;38766;53.194;5.532;2024-01-25T06:00:03;5.90;99.90
51557;DHT22;38766;53.194;5.532;2024-01-25T06:02:30;5.90;99.90
51557;DHT22;38766;53.194;5.532;2024-01-25T06:04:56;5.90;99.90
51557;DHT22;38766;53.194;5.532;2024-01-25T06:07:24;5.90;99.90
51557;DHT22;38766;53.194;5.532;2024-01-25T06:09:50;5.90;99.90
51557;DHT22;38766;53.194;5.532;2024-01-25T06:12:15;5.90;99.90
51557;DHT22;38766;53.194;5.532;2024-01-25T06:14:41;5.90;99.90
51557;DHT22;38766;53.194;5.532;2024-01-25T06:17:07;5.90;99.90
51557;DHT22;38766;53.194;5.532;2024-01-25T06:19:32;5.90;99.90
51557;DHT22;38766;53.194;5.532;2024-01-25T06:21:59;5.90;99.90
51557;DHT22;38766;53.194;5.532;2024-01-25T06:24:25;5.90;99.90
51557;DHT22;38766;53.194;5.532;2024-01-25T06:26:52;5.90;99.90
51557;DHT22;38766;53.194;5.532;2024-01-25T06:29:17;5.90;99.90
51557;DHT22;38766;53.194;5.532;2024-01-25T06:31:43;5.90;99.90
51557;DHT22;38766;53.194;5.532;2024-01-25T06:34:09;5.90;99.90
51557;DHT22;38766;53.194;5.532;2024-01-25T06:36:35;6.00;99.90
51557;DHT22;38766;53.194;5.532;2024-01-25T06:39:00;5.90;99.90
51557;DHT22;38766;53.194;5.532;2024-01-25T06:41:26;5.90;99.90
51557;DHT22;38766;53.194;5.532;2024-01-25T06:43:52;5.90;99.90
51557;DHT22;38766;53.194;5.532;2024-01-25T06:46:17;5.90;99.90
51557;DHT22;38766;53.194;5.532;2024-01-25T06:48:43;5.90;99.90
51557;DHT22;38766;53.194;5.532;2024-01-25T06:51:09;5.90;99.90
51557;DHT22;38766;53.194;5.532;2024-01-25T06:53:34;5.90;99.90
51557;DHT22;38766;53.194;5.532;2024-01-25T06:56:00;5.90;99.90
51557;DHT22;38766;53.194;5.532;2024-01-25T06:58:25;5.90;99.90
51557;DHT22;38766;53.194;5.532;2024-01-25T07:00:51;5.90;99.90
51557;DHT22;38766;53.194;5.532;2024-01-25T07:03:18;5.90;99.90
51557;DHT22;38766;53.194;5.532;2024-01-25T07:05:44;5.90;99.90
51557;DHT22;38766;53.194;5.532;2024-01-25T07:08:09;5.90;99.90
51557;DHT22;38766;53.194;5.532;2024-01-25T07:10:39;5.80;99.90
51557;DHT22;38766;53.194;5.532;2024-01-25T07:13:05;5.90;99.90
51557;DHT22;38766;53.194;5.532;2024-01-25T07:15:30;5.90;99.90
51557;DHT22;38766;53.194;5.532;2024-01-25T07:17:56;5.90;99.90
51557;DHT22;38766;53.194;5.532;2024-01-25T07:20:22;5.90;99.90
51557;DHT22;38766;53.194;5.532;2024-01-25T07:22:47;5.90;99.90
51557;DHT22;38766;53.194;5.532;2024-01-25T07:25:13;5.90;99.90
51557;DHT22;38766;53.194;5.532;2024-01-25T07:27:38;5.90;99.90
51557;DHT22;38766;53.194;5.532;2024-01-25T07:30:04;5.90;99.90
51557;DHT22;38766;53.194;5.532;2024-01-25T07:32:30;5.90;99.90
51557;DHT22;38766;53.194;5.532;2024-01-25T07:34:58;5.90;99.90
51557;DHT22;38766;53.194;5.532;2024-01-25T07:37:23;5.90;99.90
51557;DHT22;38766;53.194;5.532;2024-01-25T07:39:49;5.90;99.90
51557;DHT22;38766;53.194;5.532;2024-01-25T07:42:14;5.90;99.90
51557;DHT22;38766;53.194;5.532;2024-01-25T07:44:40;5.90;99.90
51557;DHT22;38766;53.194;5.532;2024-01-25T07:47:06;5.90;99.90
51557;DHT22;38766;53.194;5.532;2024-01-25T07:49:31;5.90;99.90
51557;DHT22;38766;53.194;5.532;2024-01-25T07:51:57;6.00;99.90
51557;DHT22;38766;53.194;5.532;2024-01-25T07:54:23;6.00;99.90
51557;DHT22;38766;53.194;5.532;2024-01-25T07:56:49;6.00;99.90
51557;DHT22;38766;53.194;5.532;2024-01-25T07:59:15;6.00;99.90
51557;DHT22;38766;53.194;5.532;2024-01-25T08:01:40;6.00;99.90
51557;DHT22;38766;53.194;5.532;2024-01-25T08:04:06;6.00;99.90
51557;DHT22;38766;53.194;5.532;2024-01-25T08:06:31;6.00;99.90
51557;DHT22;38766;53.194;5.532;2024-01-25T08:08:57;6.00;99.90
51557;DHT22;38766;53.194;5.532;2024-01-25T08:11:23;6.00;99.90
51557;DHT22;38766;53.194;5.532;2024-01-25T08:13:49;6.10;99.90
51557;DHT22;38766;53.194;5.532;2024-01-25T08:16:15;6.00;99.90
51557;DHT22;38766;53.194;5.532;2024-01-25T08:18:45;6.20;99.90
51557;DHT22;38766;53.194;5.532;2024-01-25T08:21:12;6.10;99.90
51557;DHT22;38766;53.194;5.532;2024-01-25T08:23:37;6.10;99.90
51557;DHT22;38766;53.194;5.532;2024-01-25T08:26:05;6.10;99.90
51557;DHT22;38766;53.194;5.532;2024-01-25T08:28:30;6.10;99.90
51557;DHT22;38766;53.194;5.532;2024-01-25T08:30:56;6.20;99.90
51557;DHT22;38766;53.194;5.532;2024-01-25T08:33:22;6.20;99.90
51557;DHT22;38766;53.194;5.532;2024-01-25T08:35:49;6.20;99.90
51557;DHT22;38766;53.194;5.532;2024-01-25T08:38:15;6.20;99.90
51557;DHT22;38766;53.194;5.532;2024-01-25T08:40:41;6.20;99.90
51557;DHT22;38766;53.194;5.532;2024-01-25T08:43:06;6.20;99.90
51557;DHT22;38766;53.194;5.532;2024-01-25T08:45:32;6.30;99.90
51557;DHT22;38766;53.194;5.532;2024-01-25T08:47:58;6.30;99.90
51557;DHT22;38766;53.194;5.532;2024-01-25T08:50:25;6.30;99.90
51557;DHT22;38766;53.194;5.532;2024-01-25T08:52:51;6.30;99.90
51557;DHT22;38766;53.194;5.532;2024-01-25T08:55:16;6.30;99.90
51557;DHT22;38766;53.194;5.532;2024-01-25T08:57:42;6.40;99.90
51557;DHT22;38766;53.194;5.532;2024-01-25T09:00:08;6.40;99.90
51557;DHT22;38766;53.194;5.532;2024-01-25T09:02:36;6.40;99.90
51557;DHT22;38766;53.194;5.532;2024-01-25T09:05:02;6.40;99.90
51557;DHT22;38766;53.194;5.532;2024-01-25T09:07:29;6.50;99.90
51557;DHT22;38766;53.194;5.532;2024-01-25T09:09:54;6.50;99.90
51557;DHT22;38766;53.194;5.532;2024-01-25T09:12:20;6.50;99.90
51557;DHT22;38766;53.194;5.532;2024-01-25T09:14:45;6.60;99.90
51557;DHT22;38766;53.194;5.532;2024-01-25T09:17:11;6.60;99.90
51557;DHT22;38766;53.194;5.532;2024-01-25T09:19:37;6.50;99.90
51557;DHT22;38766;53.194;5.532;2024-01-25T09:22:02;6.60;99.90
51557;DHT22;38766;53.194;5.532;2024-01-25T09:24:33;6.50;99.90
51557;DHT22;38766;53.194;5.532;2024-01-25T09:27:01;6.50;99.90
51557;DHT22;38766;53.194;5.532;2024-01-25T09:29:27;6.50;99.90
51557;DHT22;38766;53.194;5.532;2024-01-25T09:31:54;6.60;99.90
51557;DHT22;38766;53.194;5.532;2024-01-25T09:34:19;6.60;99.90
51557;DHT22;38766;53.194;5.532;2024-01-25T09:36:46;6.60;99.90
51557;DHT22;38766;53.194;5.532;2024-01-25T09:39:12;6.60;99.90
51557;DHT22;38766;53.194;5.532;2024-01-25T09:41:40;6.80;99.90
51557;DHT22;38766;53.194;5.532;2024-01-25T09:44:08;6.70;99.90
51557;DHT22;38766;53.194;5.532;2024-01-25T09:46:34;6.80;99.90
51557;DHT22;38766;53.194;5.532;2024-01-25T09:49:01;6.80;99.90
51557;DHT22;38766;53.194;5.532;2024-01-25T09:51:29;6.80;99.90
51557;DHT22;38766;53.194;5.532;2024-01-25T09:53:58;6.80;99.90
51557;DHT22;38766;53.194;5.532;2024-01-25T09:56:26;6.90;99.90
51557;DHT22;38766;53.194;5.532;2024-01-25T09:58:52;6.90;99.90
51557;DHT22;38766;53.194;5.532;2024-01-25T10:01:18;7.00;99.90
51557;DHT22;38766;53.194;5.532;2024-01-25T10:03:47;7.00;99.90
51557;DHT22;38766;53.194;5.532;2024-01-25T10:06:14;7.10;99.90
51557;DHT22;38766;53.194;5.532;2024-01-25T10:08:43;7.10;99.90
51557;DHT22;38766;53.194;5.532;2024-01-25T10:11:09;7.20;99.90
51557;DHT22;38766;53.194;5.532;2024-01-25T10:13:47;7.30;99.90
51557;DHT22;38766;53.194;5.532;2024-01-25T10:16:15;7.40;99.90
51557;DHT22;38766;53.194;5.532;2024-01-25T10:18:41;7.40;99.90
51557;DHT22;38766;53.194;5.532;2024-01-25T10:21:10;7.50;99.90
51557;DHT22;38766;53.194;5.532;2024-01-25T10:23:36;7.60;99.90
51557;DHT22;38766;53.194;5.532;2024-01-25T10:26:02;7.80;99.90
51557;DHT22;38766;53.194;5.532;2024-01-25T10:28:28;8.00;99.90
51557;DHT22;38766;53.194;5.532;2024-01-25T10:30:59;8.20;99.90
51557;DHT22;38766;53.194;5.532;2024-01-25T10:33:27;8.40;99.90
51557;DHT22;38766;53.194;5.532;2024-01-25T10:36:00;8.50;99.90
51557;DHT22;38766;53.194;5.532;2024-01-25T10:38:32;8.70;99.90
51557;DHT22;38766;53.194;5.532;2024-01-25T10:41:02;8.90;99.90
51557;DHT22;38766;53.194;5.532;2024-01-25T10:43:29;8.90;99.90
51557;DHT22;38766;53.194;5.532;2024-01-25T10:45:58;9.00;99.90
51557;DHT22;38766;53.194;5.532;2024-01-25T10:48:27;9.10;99.90
51557;DHT22;38766;53.194;5.532;2024-01-25T10:50:54;9.00;99.90
51557;DHT22;38766;53.194;5.532;2024-01-25T10:53:21;8.90;99.90
51557;DHT22;38766;53.194;5.532;2024-01-25T10:55:47;8.90;99.90
51557;DHT22;38766;53.194;5.532;2024-01-25T10:58:13;8.80;99.90
51557;DHT22;38766;53.194;5.532;2024-01-25T11:00:39;8.80;99.90
51557;DHT22;38766;53.194;5.532;2024-01-25T11:03:08;8.70;99.90
51557;DHT22;38766;53.194;5.532;2024-01-25T11:05:34;8.70;99.90
51557;DHT22;38766;53.194;5.532;2024-01-25T11:08:00;8.60;99.90
51557;DHT22;38766;53.194;5.532;2024-01-25T11:10:26;8.60;99.90
51557;DHT22;38766;53.194;5.532;2024-01-25T11:12:57;8.60;99.90
51557;DHT22;38766;53.194;5.532;2024-01-25T11:15:34;8.60;99.90
51557;DHT22;38766;53.194;5.532;2024-01-25T11:18:04;8.60;99.90
51557;DHT22;38766;53.194;5.532;2024-01-25T11:20:34;8.60;99.90
51557;DHT22;38766;53.194;5.532;2024-01-25T11:23:04;8.40;99.90
51557;DHT22;38766;53.194;5.532;2024-01-25T11:25:35;8.30;99.90
51557;DHT22;38766;53.194;5.532;2024-01-25T11:28:02;8.20;99.90
51557;DHT22;38766;53.194;5.532;2024-01-25T11:30:29;8.20;99.90
51557;DHT22;38766;53.194;5.532;2024-01-25T11:32:57;8.10;99.90
51557;DHT22;38766;53.194;5.532;2024-01-25T11:35:23;8.00;99.90
51557;DHT22;38766;53.194;5.532;2024-01-25T11:37:50;8.00;99.90
51557;DHT22;38766;53.194;5.532;2024-01-25T11:40:17;8.00;99.90
51557;DHT22;38766;53.194;5.532;2024-01-25T11:42:44;7.90;99.90
51557;DHT22;38766;53.194;5.532;2024-01-25T11:45:11;8.00;99.90
51557;DHT22;38766;53.194;5.532;2024-01-25T11:47:38;8.00;99.90
51557;DHT22;38766;53.194;5.532;2024-01-25T11:50:05;8.00;99.90
51557;DHT22;38766;53.194;5.532;2024-01-25T11:52:32;8.00;99.90
51557;DHT22;38766;53.194;5.532;2024-01-25T11:55:03;8.00;99.90
51557;DHT22;38766;53.194;5.532;2024-01-25T11:57:37;8.00;99.90
51557;DHT22;38766;53.194;5.532;2024-01-25T12:00:07;8.20;99.90
51557;DHT22;38766;53.194;5.532;2024-01-25T12:02:38;8.20;99.90
51557;DHT22;38766;53.194;5.532;2024-01-25T12:05:05;8.40;99.90
51557;DHT22;38766;53.194;5.532;2024-01-25T12:07:31;8.50;99.90
51557;DHT22;38766;53.194;5.532;2024-01-25T12:10:02;8.60;99.90
51557;DHT22;38766;53.194;5.532;2024-01-25T12:12:28;8.60;99.90
51557;DHT22;38766;53.194;5.532;2024-01-25T12:14:58;8.60;99.90
51557;DHT22;38766;53.194;5.532;2024-01-25T12:17:29;8.60;99.90
51557;DHT22;38766;53.194;5.532;2024-01-25T12:19:58;8.60;99.90
51557;DHT22;38766;53.194;5.532;2024-01-25T12:22:28;8.50;99.90
51557;DHT22;38766;53.194;5.532;2024-01-25T12:24:57;8.50;99.90
51557;DHT22;38766;53.194;5.532;2024-01-25T12:27:24;8.50;99.90
51557;DHT22;38766;53.194;5.532;2024-01-25T12:29:51;8.40;99.90
51557;DHT22;38766;53.194;5.532;2024-01-25T12:32:19;8.50;99.90
51557;DHT22;38766;53.194;5.532;2024-01-25T12:34:54;8.60;99.90
51557;DHT22;38766;53.194;5.532;2024-01-25T12:37:20;8.50;99.90
51557;DHT22;38766;53.194;5.532;2024-01-25T12:39:46;8.50;99.90
51557;DHT22;38766;53.194;5.532;2024-01-25T12:42:14;8.40;99.90
51557;DHT22;38766;53.194;5.532;2024-01-25T12:44:40;8.50;99.90
51557;DHT22;38766;53.194;5.532;2024-01-25T12:47:05;8.50;99.90
51557;DHT22;38766;53.194;5.532;2024-01-25T12:49:33;8.60;99.90
51557;DHT22;38766;53.194;5.532;2024-01-25T12:51:59;8.60;99.90
51557;DHT22;38766;53.194;5.532;2024-01-25T12:54:25;8.60;99.90
51557;DHT22;38766;53.194;5.532;2024-01-25T12:56:51;8.60;99.90
51557;DHT22;38766;53.194;5.532;2024-01-25T12:59:17;8.70;99.90
51557;DHT22;38766;53.194;5.532;2024-01-25T13:01:43;8.60;99.90
51557;DHT22;38766;53.194;5.532;2024-01-25T13:04:08;8.60;99.90
51557;DHT22;38766;53.194;5.532;2024-01-25T13:06:34;8.60;99.90
51557;DHT22;38766;53.194;5.532;2024-01-25T13:08:59;8.70;99.90
51557;DHT22;38766;53.194;5.532;2024-01-25T13:11:25;8.70;99.90
51557;DHT22;38766;53.194;5.532;2024-01-25T13:13:51;8.60;99.90
51557;DHT22;38766;53.194;5.532;2024-01-25T13:16:17;8.60;99.90
51557;DHT22;38766;53.194;5.532;2024-01-25T13:18:42;8.50;99.90
51557;DHT22;38766;53.194;5.532;2024-01-25T13:21:09;8.50;99.90
51557;DHT22;38766;53.194;5.532;2024-01-25T13:23:35;8.50;99.90
51557;DHT22;38766;53.194;5.532;2024-01-25T13:26:01;8.50;99.90
51557;DHT22;38766;53.194;5.532;2024-01-25T13:28:27;8.50;99.90
51557;DHT22;38766;53.194;5.532;2024-01-25T13:30:54;8.50;99.90
51557;DHT22;38766;53.194;5.532;2024-01-25T13:33:20;8.60;99.90
51557;DHT22;38766;53.194;5.532;2024-01-25T13:35:45;8.70;99.90
51557;DHT22;38766;53.194;5.532;2024-01-25T13:38:11;8.80;99.90
51557;DHT22;38766;53.194;5.532;2024-01-25T13:40:40;8.70;99.90
51557;DHT22;38766;53.194;5.532;2024-01-25T13:43:06;8.70;99.90
51557;DHT22;38766;53.194;5.532;2024-01-25T13:45:31;8.60;99.90
51557;DHT22;38766;53.194;5.532;2024-01-25T13:47:57;8.60;99.90
51557;DHT22;38766;53.194;5.532;2024-01-25T13:50:23;8.50;99.90
51557;DHT22;38766;53.194;5.532;2024-01-25T13:52:51;8.50;99.90
51557;DHT22;38766;53.194;5.532;2024-01-25T13:55:17;8.40;99.90
51557;DHT22;38766;53.194;5.532;2024-01-25T13:57:43;8.40;99.90
51557;DHT22;38766;53.194;5.532;2024-01-25T14:00:09;8.40;99.90
51557;DHT22;38766;53.194;5.532;2024-01-25T14:02:35;8.30;99.90
51557;DHT22;38766;53.194;5.532;2024-01-25T14:05:01;8.30;99.90
51557;DHT22;38766;53.194;5.532;2024-01-25T14:07:27;8.30;99.90
51557;DHT22;38766;53.194;5.532;2024-01-25T14:09:53;8.30;99.90
51557;DHT22;38766;53.194;5.532;2024-01-25T14:12:19;8.30;99.90
51557;DHT22;38766;53.194;5.532;2024-01-25T14:14:45;8.20;99.90
51557;DHT22;38766;53.194;5.532;2024-01-25T14:17:11;8.20;99.90
51557;DHT22;38766;53.194;5.532;2024-01-25T14:19:36;8.20;99.90
51557;DHT22;38766;53.194;5.532;2024-01-25T14:22:02;8.20;99.90
51557;DHT22;38766;53.194;5.532;2024-01-25T14:24:27;8.20;99.90
51557;DHT22;38766;53.194;5.532;2024-01-25T14:26:53;8.20;99.90
51557;DHT22;38766;53.194;5.532;2024-01-25T14:29:19;8.10;99.90
51557;DHT22;38766;53.194;5.532;2024-01-25T14:31:44;8.10;99.90
51557;DHT22;38766;53.194;5.532;2024-01-25T14:34:10;8.10;99.90
51557;DHT22;38766;53.194;5.532;2024-01-25T14:36:36;8.00;99.90
51557;DHT22;38766;53.194;5.532;2024-01-25T14:39:02;8.00;99.90
51557;DHT22;38766;53.194;5.532;2024-01-25T14:41:29;7.90;99.90
51557;DHT22;38766;53.194;5.532;2024-01-25T14:43:55;7.80;99.90
51557;DHT22;38766;53.194;5.532;2024-01-25T14:46:20;7.80;99.90
51557;DHT22;38766;53.194;5.532;2024-01-25T14:48:46;7.80;99.90
51557;DHT22;38766;53.194;5.532;2024-01-25T14:51:12;7.70;99.90
51557;DHT22;38766;53.194;5.532;2024-01-25T14:53:37;7.70;99.90
51557;DHT22;38766;53.194;5.532;2024-01-25T14:56:03;7.60;99.90
51557;DHT22;38766;53.194;5.532;2024-01-25T14:58:29;7.60;99.90
51557;DHT22;38766;53.194;5.532;2024-01-25T15:00:55;7.50;99.90
51557;DHT22;38766;53.194;5.532;2024-01-25T15:03:20;7.50;99.90
51557;DHT22;38766;53.194;5.532;2024-01-25T15:05:46;7.40;99.90
51557;DHT22;38766;53.194;5.532;2024-01-25T15:08:12;7.40;99.90
51557;DHT22;38766;53.194;5.532;2024-01-25T15:10:37;7.40;99.90
51557;DHT22;38766;53.194;5.532;2024-01-25T15:13:03;7.40;99.90
51557;DHT22;38766;53.194;5.532;2024-01-25T15:15:29;7.40;99.90
51557;DHT22;38766;53.194;5.532;2024-01-25T15:17:56;7.40;99.90
51557;DHT22;38766;53.194;5.532;2024-01-25T15:20:22;7.50;99.90
51557;DHT22;38766;53.194;5.532;2024-01-25T15:22:49;7.40;99.90
51557;DHT22;38766;53.194;5.532;2024-01-25T15:25:15;7.40;99.90
51557;DHT22;38766;53.194;5.532;2024-01-25T15:27:40;7.40;99.90
51557;DHT22;38766;53.194;5.532;2024-01-25T15:30:06;7.40;99.90
51557;DHT22;38766;53.194;5.532;2024-01-25T15:32:34;7.40;99.90
51557;DHT22;38766;53.194;5.532;2024-01-25T15:35:03;7.40;99.90
51557;DHT22;38766;53.194;5.532;2024-01-25T15:37:29;7.40;99.90
51557;DHT22;38766;53.194;5.532;2024-01-25T15:39:54;7.40;99.90